Time;durP1;ratioP1;P1;durP2;ratioP2;P2;SDS_P1;SDS_P2;PMS_P1;PMS_P2;Temp;Humidity;BMP_temperature;BMP_pressure;BME280_temperature;BME280_humidity;BME280_pressure;Samples;Min_cycle;Max_cycle;Signal;HPM_P1;HPM_P2
2022/10/20 00:01:02;;;;;;;;;;;20.00;99.90;;;;;;5030962;28;19933;-59
2022/10/20 00:03:29;;;;;;;;;;;20.00;99.90;;;;;;5038176;28;19929;-62
2022/10/20 00:06:07;;;;;;;;;;;20.00;99.90;;;;;;5023922;28;19932;-59
2022/10/20 00:08:34;;;;;;;;;;;20.00;99.90;;;;;;5037111;28;19932;-59
2022/10/20 00:11:01;;;;;;;;;;;20.00;99.90;;;;;;5031103;28;19936;-62
2022/10/20 00:13:28;;;;;;;;;;;20.00;99.90;;;;;;5036416;28;19941;-63
2022/10/20 00:15:55;;;;;;;;;;;20.00;99.90;;;;;;5026899;28;19929;-59
2022/10/20 00:18:22;;;;;;;;;;;20.00;99.90;;;;;;5025646;28;20405;-59
2022/10/20 00:20:50;;;;;;;;;;;20.00;99.90;;;;;;5019301;28;19930;-58
2022/10/20 00:23:17;;;;;;;;;;;20.00;99.90;;;;;;5018744;28;19936;-59
2022/10/20 00:25:44;;;;;;;;;;;20.00;99.90;;;;;;5029535;28;19929;-61
2022/10/20 00:28:11;;;;;;;;;;;20.00;99.90;;;;;;5022706;28;20289;-61
2022/10/20 00:30:38;;;;;;;;;;;20.00;99.90;;;;;;5031501;28;19929;-59
2022/10/20 00:33:05;;;;;;;;;;;20.00;99.90;;;;;;5036861;28;19925;-61
2022/10/20 00:35:36;;;;;;;;;;;19.90;99.90;;;;;;5027397;28;19936;-58
2022/10/20 00:38:03;;;;;;;;;;;20.00;99.90;;;;;;5032912;28;19933;-61
2022/10/20 00:40:30;;;;;;;;;;;19.90;99.90;;;;;;5020736;28;19925;-61
2022/10/20 00:42:57;;;;;;;;;;;19.90;99.90;;;;;;5032853;28;19944;-56
2022/10/20 00:45:25;;;;;;;;;;;19.90;99.90;;;;;;5028796;28;19955;-61
2022/10/20 00:47:57;;;;;;;;;;;19.90;99.90;;;;;;5025151;28;19944;-63
2022/10/20 00:50:26;;;;;;;;;;;19.90;99.90;;;;;;5037587;28;19932;-60
2022/10/20 00:52:54;;;;;;;;;;;19.90;99.90;;;;;;5027830;28;19929;-60
2022/10/20 00:55:23;;;;;;;;;;;19.90;99.90;;;;;;5019512;28;19926;-59
2022/10/20 00:57:51;;;;;;;;;;;19.90;99.90;;;;;;5034132;28;19925;-63
2022/10/20 01:00:18;;;;;;;;;;;19.90;99.90;;;;;;5041813;28;20378;-60
2022/10/20 01:02:45;;;;;;;;;;;19.90;99.90;;;;;;5024976;28;19925;-61
2022/10/20 01:05:13;;;;;;;;;;;19.90;99.90;;;;;;5029154;28;20415;-59
2022/10/20 01:07:40;;;;;;;;;;;19.90;99.90;;;;;;5031574;28;19925;-61
2022/10/20 01:10:07;;;;;;;;;;;19.90;99.90;;;;;;5020909;28;19925;-61
2022/10/20 01:12:56;;;;;;;;;;;19.90;99.90;;;;;;5030452;28;19929;-62
2022/10/20 01:15:49;;;;;;;;;;;19.90;99.90;;;;;;5028381;28;19959;-62
2022/10/20 01:18:23;;;;;;;;;;;19.90;99.90;;;;;;5038120;28;19937;-59
2022/10/20 01:21:05;;;;;;;;;;;19.90;99.90;;;;;;5035350;28;19925;-63
2022/10/20 01:23:35;;;;;;;;;;;19.90;99.90;;;;;;5041460;28;19924;-62
2022/10/20 01:26:05;;;;;;;;;;;19.90;99.90;;;;;;5037697;28;19925;-58
2022/10/20 01:28:41;;;;;;;;;;;19.90;99.90;;;;;;5030604;28;20150;-58
2022/10/20 01:31:16;;;;;;;;;;;19.90;99.90;;;;;;5040557;28;20407;-57
2022/10/20 01:33:48;;;;;;;;;;;19.90;99.90;;;;;;5022534;28;19949;-62
2022/10/20 01:36:20;;;;;;;;;;;19.90;99.90;;;;;;5030919;28;19929;-60
2022/10/20 01:38:53;;;;;;;;;;;19.80;99.90;;;;;;5032274;28;20323;-59
2022/10/20 01:41:20;;;;;;;;;;;19.80;99.90;;;;;;5025409;28;19930;-58
2022/10/20 01:43:48;;;;;;;;;;;19.80;99.90;;;;;;5036652;28;19925;-59
2022/10/20 01:46:16;;;;;;;;;;;19.80;99.90;;;;;;5033673;28;19932;-66
2022/10/20 01:48:45;;;;;;;;;;;19.80;99.90;;;;;;5038157;28;19960;-61
2022/10/20 01:51:12;;;;;;;;;;;19.80;99.90;;;;;;5021057;28;19926;-59
2022/10/20 01:53:39;;;;;;;;;;;19.80;99.90;;;;;;5025181;28;19929;-59
2022/10/20 01:56:11;;;;;;;;;;;19.80;99.90;;;;;;5021347;28;19948;-57
2022/10/20 01:58:53;;;;;;;;;;;19.80;99.90;;;;;;5042237;28;20294;-63
2022/10/20 02:01:23;;;;;;;;;;;19.80;99.90;;;;;;5023310;28;19936;-61
2022/10/20 02:03:54;;;;;;;;;;;19.80;99.90;;;;;;5029022;28;20342;-61
2022/10/20 02:06:30;;;;;;;;;;;19.80;99.90;;;;;;5024420;28;19933;-60
2022/10/20 02:09:03;;;;;;;;;;;19.80;99.90;;;;;;5032043;28;19949;-62
2022/10/20 02:11:39;;;;;;;;;;;19.80;99.90;;;;;;5026781;28;19932;-61
2022/10/20 02:14:08;;;;;;;;;;;19.80;99.90;;;;;;5023169;28;19925;-58
2022/10/20 02:16:38;;;;;;;;;;;19.80;99.90;;;;;;5031941;28;19925;-62
2022/10/20 02:19:06;;;;;;;;;;;19.80;99.90;;;;;;5025634;28;19925;-60
2022/10/20 02:21:33;;;;;;;;;;;19.80;99.90;;;;;;5028510;28;19933;-61
2022/10/20 02:24:03;;;;;;;;;;;19.80;99.90;;;;;;5024019;28;20008;-62
2022/10/20 02:26:31;;;;;;;;;;;19.80;99.90;;;;;;5031909;28;19929;-61
2022/10/20 02:29:13;;;;;;;;;;;19.70;99.90;;;;;;5025179;28;19929;-61
2022/10/20 02:31:41;;;;;;;;;;;19.80;99.90;;;;;;5019978;28;20420;-63
2022/10/20 02:34:08;;;;;;;;;;;19.80;99.90;;;;;;5024232;28;19929;-64
2022/10/20 02:36:37;;;;;;;;;;;19.80;99.90;;;;;;5026262;28;20408;-60
2022/10/20 02:39:04;;;;;;;;;;;19.70;99.90;;;;;;5027721;28;19940;-60
2022/10/20 02:41:31;;;;;;;;;;;19.80;99.90;;;;;;5051149;28;19929;-58
2022/10/20 02:43:58;;;;;;;;;;;19.70;99.90;;;;;;5027604;28;20316;-61
2022/10/20 02:46:25;;;;;;;;;;;19.70;99.90;;;;;;5023247;28;19930;-63
2022/10/20 02:48:52;;;;;;;;;;;19.70;99.90;;;;;;5030160;28;19933;-60
2022/10/20 02:51:19;;;;;;;;;;;19.70;99.90;;;;;;5024899;28;20451;-60
2022/10/20 02:53:47;;;;;;;;;;;19.70;99.90;;;;;;5028887;28;19940;-61
2022/10/20 02:56:14;;;;;;;;;;;19.70;99.90;;;;;;5043866;28;19941;-63
2022/10/20 02:58:41;;;;;;;;;;;19.70;99.90;;;;;;5026296;28;19930;-60
2022/10/20 03:01:08;;;;;;;;;;;19.70;99.90;;;;;;5035872;28;19929;-61
2022/10/20 03:03:35;;;;;;;;;;;19.70;99.90;;;;;;5032669;28;19924;-62
2022/10/20 03:06:06;;;;;;;;;;;19.70;99.90;;;;;;5026224;28;20339;-59
2022/10/20 03:08:33;;;;;;;;;;;19.70;99.90;;;;;;5021568;28;19925;-61
2022/10/20 03:11:00;;;;;;;;;;;19.70;99.90;;;;;;5017369;28;19985;-60
2022/10/20 03:13:27;;;;;;;;;;;19.70;99.90;;;;;;5028803;28;19925;-64
2022/10/20 03:15:59;;;;;;;;;;;19.70;99.90;;;;;;5037770;28;19928;-64
2022/10/20 03:18:26;;;;;;;;;;;19.70;99.90;;;;;;5038258;28;19926;-62
2022/10/20 03:20:53;;;;;;;;;;;19.70;99.90;;;;;;5029303;28;19929;-64
2022/10/20 03:23:20;;;;;;;;;;;19.70;99.90;;;;;;5028450;28;19945;-59
2022/10/20 03:25:47;;;;;;;;;;;19.60;99.90;;;;;;5028054;28;19925;-57
2022/10/20 03:28:15;;;;;;;;;;;19.70;99.90;;;;;;5032720;28;19940;-58
2022/10/20 03:30:42;;;;;;;;;;;19.70;99.90;;;;;;5028283;28;19932;-59
2022/10/20 03:33:09;;;;;;;;;;;19.60;99.90;;;;;;5027055;28;20339;-60
2022/10/20 03:35:36;;;;;;;;;;;19.60;99.90;;;;;;5030354;28;19925;-58
2022/10/20 03:38:03;;;;;;;;;;;19.60;99.90;;;;;;5036769;28;19936;-61
2022/10/20 03:40:30;;;;;;;;;;;19.60;99.90;;;;;;5032426;28;20131;-60
2022/10/20 03:42:57;;;;;;;;;;;19.60;99.90;;;;;;5032968;28;19934;-57
2022/10/20 03:45:24;;;;;;;;;;;19.60;99.90;;;;;;5037764;28;19929;-54
2022/10/20 03:47:51;;;;;;;;;;;19.60;99.90;;;;;;5024418;28;19929;-61
2022/10/20 03:50:18;;;;;;;;;;;19.60;99.90;;;;;;5018945;28;20708;-62
2022/10/20 03:52:49;;;;;;;;;;;19.60;99.90;;;;;;5018833;28;19926;-61
2022/10/20 03:55:17;;;;;;;;;;;19.60;99.90;;;;;;5027704;28;19937;-61
2022/10/20 03:57:44;;;;;;;;;;;19.60;99.90;;;;;;5040328;28;19936;-59
2022/10/20 04:00:11;;;;;;;;;;;19.60;99.90;;;;;;5024311;28;19936;-60
2022/10/20 04:02:41;;;;;;;;;;;19.70;99.90;;;;;;5035642;28;19929;-59
2022/10/20 04:05:09;;;;;;;;;;;19.70;99.90;;;;;;5027165;28;19925;-57
2022/10/20 04:07:36;;;;;;;;;;;19.70;99.90;;;;;;5029595;28;19925;-61
2022/10/20 04:10:03;;;;;;;;;;;19.70;99.90;;;;;;5019549;28;19930;-57
2022/10/20 04:12:30;;;;;;;;;;;19.70;99.90;;;;;;5019808;28;19952;-58
2022/10/20 04:14:57;;;;;;;;;;;19.70;99.90;;;;;;5027526;28;19930;-60
2022/10/20 04:17:24;;;;;;;;;;;19.80;99.90;;;;;;5019411;28;19936;-60
2022/10/20 04:19:51;;;;;;;;;;;19.80;99.90;;;;;;5018588;28;19926;-59
2022/10/20 04:22:18;;;;;;;;;;;19.80;99.90;;;;;;5024991;28;19936;-59
2022/10/20 04:24:45;;;;;;;;;;;19.70;99.90;;;;;;5038452;28;19929;-59
2022/10/20 04:27:12;;;;;;;;;;;19.80;99.90;;;;;;5031502;28;19926;-57
2022/10/20 04:29:39;;;;;;;;;;;19.80;99.90;;;;;;5023799;28;19940;-58
2022/10/20 04:32:06;;;;;;;;;;;19.80;99.90;;;;;;5014781;28;19925;-64
2022/10/20 04:34:35;;;;;;;;;;;19.80;99.90;;;;;;5024943;28;19940;-61
2022/10/20 04:37:02;;;;;;;;;;;19.80;99.90;;;;;;5024591;28;19940;-64
2022/10/20 04:39:29;;;;;;;;;;;19.80;99.90;;;;;;5025343;28;19952;-61
2022/10/20 04:41:56;;;;;;;;;;;19.80;99.90;;;;;;5018082;28;19961;-64
2022/10/20 04:44:23;;;;;;;;;;;19.80;99.90;;;;;;5027068;28;19929;-59
2022/10/20 04:46:52;;;;;;;;;;;19.80;99.90;;;;;;5033466;28;19926;-56
2022/10/20 04:49:19;;;;;;;;;;;19.80;99.90;;;;;;5029095;28;19929;-61
2022/10/20 04:51:46;;;;;;;;;;;19.80;99.90;;;;;;5020063;28;20004;-59
2022/10/20 04:54:14;;;;;;;;;;;19.80;99.90;;;;;;5027682;28;19937;-59
2022/10/20 04:56:41;;;;;;;;;;;19.90;99.90;;;;;;5034088;28;19931;-59
2022/10/20 04:59:08;;;;;;;;;;;19.90;99.90;;;;;;5031502;28;19926;-57
2022/10/20 05:01:39;;;;;;;;;;;19.80;99.90;;;;;;5027754;28;19936;-58
2022/10/20 05:04:07;;;;;;;;;;;19.80;99.90;;;;;;5031166;28;19928;-64
2022/10/20 05:06:34;;;;;;;;;;;19.80;99.90;;;;;;5024885;28;19929;-55
2022/10/20 05:09:03;;;;;;;;;;;19.80;99.90;;;;;;5022887;28;19929;-58
2022/10/20 05:11:30;;;;;;;;;;;19.90;99.90;;;;;;5033861;28;19925;-60
2022/10/20 05:13:57;;;;;;;;;;;19.90;99.90;;;;;;5021743;28;19925;-61
2022/10/20 05:16:24;;;;;;;;;;;19.90;99.90;;;;;;5023122;28;19929;-60
2022/10/20 05:18:52;;;;;;;;;;;19.90;99.90;;;;;;5028294;28;20648;-60
2022/10/20 05:21:21;;;;;;;;;;;19.90;99.90;;;;;;5027296;28;19955;-62
2022/10/20 05:23:48;;;;;;;;;;;19.90;99.90;;;;;;5023368;28;20624;-59
2022/10/20 05:26:16;;;;;;;;;;;19.90;99.90;;;;;;5032826;28;20285;-62
2022/10/20 05:28:47;;;;;;;;;;;19.90;99.90;;;;;;5026597;28;20427;-58
2022/10/20 05:31:15;;;;;;;;;;;19.90;99.90;;;;;;5027358;28;19929;-61
2022/10/20 05:33:44;;;;;;;;;;;19.90;99.90;;;;;;5028697;28;19929;-59
2022/10/20 05:36:12;;;;;;;;;;;19.90;99.90;;;;;;5030167;28;20051;-56
2022/10/20 05:38:45;;;;;;;;;;;19.90;99.90;;;;;;5029362;28;20419;-57
2022/10/20 05:41:14;;;;;;;;;;;19.90;99.90;;;;;;5021896;28;19936;-63
2022/10/20 05:43:41;;;;;;;;;;;19.90;99.90;;;;;;5023884;28;20405;-63
2022/10/20 05:46:08;;;;;;;;;;;19.90;99.90;;;;;;5025714;28;19929;-61
2022/10/20 05:48:35;;;;;;;;;;;19.90;99.90;;;;;;5031520;28;19933;-64
2022/10/20 05:51:13;;;;;;;;;;;19.90;99.90;;;;;;5030781;28;19936;-62
2022/10/20 05:53:42;;;;;;;;;;;19.90;99.90;;;;;;5033131;28;19933;-62
2022/10/20 05:56:13;;;;;;;;;;;19.90;99.90;;;;;;5029328;28;19936;-61
2022/10/20 05:58:41;;;;;;;;;;;19.90;99.90;;;;;;5040594;28;19944;-62
2022/10/20 06:01:17;;;;;;;;;;;19.90;99.90;;;;;;5032269;28;20012;-60
2022/10/20 06:03:54;;;;;;;;;;;19.90;99.90;;;;;;5042317;28;19932;-61
2022/10/20 06:06:26;;;;;;;;;;;19.90;99.90;;;;;;5048715;28;20000;-62
2022/10/20 06:08:54;;;;;;;;;;;19.90;99.90;;;;;;5044797;28;19931;-63
2022/10/20 06:11:22;;;;;;;;;;;19.90;99.90;;;;;;5044231;28;19925;-61
2022/10/20 06:13:49;;;;;;;;;;;19.90;99.90;;;;;;5040137;28;19929;-60
2022/10/20 06:16:20;;;;;;;;;;;19.90;99.90;;;;;;5057028;28;20388;-63
2022/10/20 06:18:48;;;;;;;;;;;19.90;99.90;;;;;;5041905;28;19947;-63
2022/10/20 06:21:16;;;;;;;;;;;19.90;99.90;;;;;;5042741;28;19947;-63
2022/10/20 06:23:43;;;;;;;;;;;19.90;99.90;;;;;;5052850;28;19935;-63
2022/10/20 06:26:12;;;;;;;;;;;19.90;99.90;;;;;;5057482;28;19928;-62
2022/10/20 06:28:39;;;;;;;;;;;19.90;99.90;;;;;;5051462;28;20024;-64
2022/10/20 06:31:14;;;;;;;;;;;19.90;99.90;;;;;;5048442;28;19929;-61
2022/10/20 06:33:41;;;;;;;;;;;19.90;99.90;;;;;;5054213;28;19925;-64
2022/10/20 06:36:08;;;;;;;;;;;19.90;99.90;;;;;;5054073;28;19933;-64
2022/10/20 06:38:37;;;;;;;;;;;19.90;99.90;;;;;;5045358;28;19925;-64
2022/10/20 06:41:04;;;;;;;;;;;19.90;99.90;;;;;;5064810;28;20236;-62
2022/10/20 06:43:32;;;;;;;;;;;19.90;99.90;;;;;;5048757;28;19931;-62
2022/10/20 06:46:03;;;;;;;;;;;19.90;99.90;;;;;;5048009;28;20427;-61
2022/10/20 06:48:31;;;;;;;;;;;19.90;99.90;;;;;;5038223;28;19925;-62
2022/10/20 06:50:59;;;;;;;;;;;19.90;99.90;;;;;;5044231;28;19929;-62
2022/10/20 06:53:27;;;;;;;;;;;19.90;99.90;;;;;;5046462;28;19936;-63
2022/10/20 06:55:58;;;;;;;;;;;19.90;99.90;;;;;;5050078;28;19936;-63
2022/10/20 06:58:25;;;;;;;;;;;19.90;99.90;;;;;;5051790;28;19933;-61
2022/10/20 07:00:59;;;;;;;;;;;19.90;99.90;;;;;;5040748;28;19940;-63
2022/10/20 07:03:30;;;;;;;;;;;19.90;99.90;;;;;;5042803;28;19936;-62
2022/10/20 07:05:58;;;;;;;;;;;19.90;99.90;;;;;;5042193;28;20099;-63
2022/10/20 07:08:26;;;;;;;;;;;19.90;99.90;;;;;;5049196;28;19930;-63
2022/10/20 07:11:11;;;;;;;;;;;19.90;99.90;;;;;;5038958;28;19944;-62
2022/10/20 07:13:38;;;;;;;;;;;19.90;99.90;;;;;;5033701;28;19948;-63
2022/10/20 07:16:06;;;;;;;;;;;19.90;99.90;;;;;;5024551;28;19925;-61
2022/10/20 07:18:34;;;;;;;;;;;19.90;99.90;;;;;;5042099;28;19928;-61
2022/10/20 07:21:03;;;;;;;;;;;19.90;99.90;;;;;;5025132;28;20385;-62
2022/10/20 07:23:31;;;;;;;;;;;19.90;99.90;;;;;;5023054;28;19925;-60
2022/10/20 07:26:01;;;;;;;;;;;19.90;99.90;;;;;;5028188;28;19925;-62
2022/10/20 07:28:28;;;;;;;;;;;19.90;99.90;;;;;;5048907;28;19937;-62
2022/10/20 07:30:55;;;;;;;;;;;19.90;99.90;;;;;;5052265;28;19944;-62
2022/10/20 07:33:22;;;;;;;;;;;19.90;99.90;;;;;;5036661;28;19930;-60
2022/10/20 07:35:49;;;;;;;;;;;19.90;99.90;;;;;;5050477;28;20376;-64
2022/10/20 07:38:16;;;;;;;;;;;19.90;99.90;;;;;;5052460;28;19937;-64
2022/10/20 07:40:44;;;;;;;;;;;19.90;99.90;;;;;;5029913;28;19942;-63
2022/10/20 07:43:11;;;;;;;;;;;19.90;99.90;;;;;;5039063;28;19940;-63
2022/10/20 07:45:38;;;;;;;;;;;19.90;99.90;;;;;;5043698;28;19939;-63
2022/10/20 07:48:06;;;;;;;;;;;19.90;99.90;;;;;;5049023;28;19925;-72
2022/10/20 07:50:33;;;;;;;;;;;19.90;99.90;;;;;;5042659;28;19925;-64
2022/10/20 07:53:00;;;;;;;;;;;19.90;99.90;;;;;;5038107;28;19925;-62
2022/10/20 07:55:27;;;;;;;;;;;19.90;99.90;;;;;;5031968;28;19932;-63
2022/10/20 07:58:09;;;;;;;;;;;19.90;99.90;;;;;;5022223;28;19929;-62
2022/10/20 08:00:36;;;;;;;;;;;19.90;99.90;;;;;;5025317;28;20313;-61
2022/10/20 08:03:03;;;;;;;;;;;19.80;99.90;;;;;;5025384;28;19929;-61
2022/10/20 08:05:31;;;;;;;;;;;19.80;99.90;;;;;;5025300;28;20328;-63
2022/10/20 08:07:59;;;;;;;;;;;19.80;99.90;;;;;;5030691;28;19935;-64
2022/10/20 08:10:26;;;;;;;;;;;19.90;99.90;;;;;;5026716;28;19925;-65
2022/10/20 08:12:53;;;;;;;;;;;20.20;99.90;;;;;;5030743;28;20409;-64
2022/10/20 08:15:20;;;;;;;;;;;20.40;99.90;;;;;;5023133;28;19929;-67
2022/10/20 08:17:48;;;;;;;;;;;20.60;99.90;;;;;;5034170;28;19929;-69
2022/10/20 08:20:15;;;;;;;;;;;20.70;99.90;;;;;;5032244;28;20269;-68
2022/10/20 08:22:45;;;;;;;;;;;21.00;99.90;;;;;;5032502;28;20301;-67
2022/10/20 08:25:13;;;;;;;;;;;21.10;99.90;;;;;;5025659;28;19925;-68
2022/10/20 08:27:40;;;;;;;;;;;21.20;99.90;;;;;;5026853;28;19940;-66
2022/10/20 08:30:08;;;;;;;;;;;21.40;99.90;;;;;;5032453;28;19951;-67
2022/10/20 08:32:51;;;;;;;;;;;21.40;99.90;;;;;;5030548;28;19932;-67
2022/10/20 08:35:20;;;;;;;;;;;21.40;99.90;;;;;;5032978;28;19928;-68
2022/10/20 08:37:47;;;;;;;;;;;21.40;99.90;;;;;;5039305;28;19936;-67
2022/10/20 08:40:22;;;;;;;;;;;21.40;99.90;;;;;;5029635;28;20415;-68
2022/10/20 08:42:49;;;;;;;;;;;21.40;99.90;;;;;;5025134;28;19935;-67
2022/10/20 08:45:18;;;;;;;;;;;21.40;99.90;;;;;;5033115;28;19936;-66
2022/10/20 08:47:46;;;;;;;;;;;21.40;99.90;;;;;;5024715;28;19958;-68
2022/10/20 08:50:15;;;;;;;;;;;21.40;99.90;;;;;;5025523;28;19952;-69
2022/10/20 08:52:44;;;;;;;;;;;21.40;99.90;;;;;;5032646;28;19926;-65
2022/10/20 08:55:28;;;;;;;;;;;21.30;99.90;;;;;;5023112;28;19926;-68
2022/10/20 08:58:03;;;;;;;;;;;21.30;99.90;;;;;;5043739;28;19929;-66
2022/10/20 09:00:31;;;;;;;;;;;21.20;99.90;;;;;;5027823;28;20569;-70
2022/10/20 09:03:10;;;;;;;;;;;21.30;99.90;;;;;;5027773;28;19940;-66
2022/10/20 09:05:39;;;;;;;;;;;21.20;99.90;;;;;;5028908;28;19925;-68
2022/10/20 09:08:06;;;;;;;;;;;21.20;99.90;;;;;;5033450;28;20039;-69
2022/10/20 09:10:34;;;;;;;;;;;21.10;99.90;;;;;;5032431;28;19937;-68
2022/10/20 09:13:16;;;;;;;;;;;21.10;99.90;;;;;;5031109;28;19952;-62
2022/10/20 09:15:43;;;;;;;;;;;21.10;99.90;;;;;;5025710;28;19936;-69
2022/10/20 09:18:12;;;;;;;;;;;21.10;99.90;;;;;;5032873;28;19928;-69
2022/10/20 09:21:00;;;;;;;;;;;21.20;99.90;;;;;;5032229;28;19983;-67
2022/10/20 09:23:34;;;;;;;;;;;21.10;99.90;;;;;;5030809;28;20593;-66
2022/10/20 09:26:19;;;;;;;;;;;21.10;99.90;;;;;;5039151;28;19929;-65
2022/10/20 09:29:08;;;;;;;;;;;21.10;99.90;;;;;;5045023;28;19924;-68
2022/10/20 09:31:43;;;;;;;;;;;21.10;99.90;;;;;;5034568;23;19948;-62
2022/10/20 09:34:29;;;;;;;;;;;21.00;99.90;;;;;;5003175;28;20425;-61
2022/10/20 09:36:58;;;;;;;;;;;20.90;99.90;;;;;;5008947;28;20305;-62
2022/10/20 09:39:26;;;;;;;;;;;20.90;99.90;;;;;;5010374;28;20417;-64
2022/10/20 09:42:04;;;;;;;;;;;20.90;99.90;;;;;;5019139;28;19929;-64
2022/10/20 09:44:32;;;;;;;;;;;20.80;99.90;;;;;;5012178;28;19949;-63
2022/10/20 09:47:00;;;;;;;;;;;20.80;99.90;;;;;;5000916;28;19930;-61
2022/10/20 09:49:32;;;;;;;;;;;20.80;99.90;;;;;;5006526;28;19940;-64
2022/10/20 09:52:01;;;;;;;;;;;20.90;99.90;;;;;;5010120;28;20317;-64
2022/10/20 09:54:28;;;;;;;;;;;20.90;99.90;;;;;;5009672;28;19932;-65
2022/10/20 09:57:05;;;;;;;;;;;20.90;99.90;;;;;;5016176;28;19932;-65
2022/10/20 09:59:34;;;;;;;;;;;20.90;99.90;;;;;;5014288;28;19926;-64
2022/10/20 10:02:14;;;;;;;;;;;20.90;99.90;;;;;;5010377;28;19926;-66
2022/10/20 10:04:42;;;;;;;;;;;20.90;99.90;;;;;;5014188;28;20400;-67
2022/10/20 10:07:31;;;;;;;;;;;20.90;99.90;;;;;;5010279;28;19929;-62
2022/10/20 10:10:03;;;;;;;;;;;21.00;99.90;;;;;;5001851;28;19929;-65
2022/10/20 10:12:34;;;;;;;;;;;20.90;99.90;;;;;;4999655;28;20316;-63
2022/10/20 10:15:07;;;;;;;;;;;20.90;99.90;;;;;;5004413;28;19929;-64
2022/10/20 10:17:36;;;;;;;;;;;20.90;99.90;;;;;;5006421;28;19929;-65
2022/10/20 10:20:12;;;;;;;;;;;20.80;99.90;;;;;;5012601;28;19929;-63
2022/10/20 10:22:40;;;;;;;;;;;20.80;99.90;;;;;;5008886;28;19929;-63
2022/10/20 10:25:13;;;;;;;;;;;20.80;99.90;;;;;;5010942;28;19937;-64
2022/10/20 10:27:55;;;;;;;;;;;20.80;99.90;;;;;;5010438;28;19936;-63
2022/10/20 10:30:29;;;;;;;;;;;20.80;99.90;;;;;;5010458;28;19926;-64
2022/10/20 10:32:57;;;;;;;;;;;20.80;99.90;;;;;;5014082;28;20305;-62
2022/10/20 10:35:38;;;;;;;;;;;20.80;99.90;;;;;;5015796;28;19930;-64
2022/10/20 10:38:08;;;;;;;;;;;20.80;99.90;;;;;;5005656;28;19926;-64
2022/10/20 10:40:54;;;;;;;;;;;20.70;99.90;;;;;;5003108;28;20313;-64
2022/10/20 10:43:23;;;;;;;;;;;20.70;99.90;;;;;;5005651;28;19940;-65
2022/10/20 10:45:54;;;;;;;;;;;20.70;99.90;;;;;;5027179;28;19929;-66
2022/10/20 10:48:30;;;;;;;;;;;20.70;99.90;;;;;;5004545;28;19929;-65
2022/10/20 10:50:59;;;;;;;;;;;20.60;99.90;;;;;;5014102;28;19933;-65
2022/10/20 10:53:26;;;;;;;;;;;20.60;99.90;;;;;;5009422;28;20314;-65
2022/10/20 10:55:54;;;;;;;;;;;20.60;99.90;;;;;;5016619;28;19997;-65
2022/10/20 10:58:33;;;;;;;;;;;20.70;99.90;;;;;;5010074;28;19934;-66
2022/10/20 11:01:06;;;;;;;;;;;20.70;99.90;;;;;;5007822;28;19930;-67
2022/10/20 11:03:39;;;;;;;;;;;20.70;99.90;;;;;;4996428;28;20301;-64
2022/10/20 11:06:09;;;;;;;;;;;20.80;99.90;;;;;;4999103;28;19930;-66
2022/10/20 11:08:54;;;;;;;;;;;20.80;99.90;;;;;;5006682;28;19929;-65
2022/10/20 11:11:54;;;;;;;;;;;20.80;99.90;;;;;;5015066;28;19933;-66
2022/10/20 11:14:21;;;;;;;;;;;20.90;99.90;;;;;;5013670;28;20011;-65
2022/10/20 11:17:14;;;;;;;;;;;21.40;99.90;;;;;;5023878;28;20757;-66
2022/10/20 11:19:41;;;;;;;;;;;21.50;99.90;;;;;;5000162;28;19926;-66
2022/10/20 11:22:19;;;;;;;;;;;21.30;99.90;;;;;;5010337;28;19933;-65
2022/10/20 11:24:49;;;;;;;;;;;21.20;99.90;;;;;;5005674;28;19926;-67
2022/10/20 11:27:23;;;;;;;;;;;21.10;99.90;;;;;;5004351;28;19926;-66
2022/10/20 11:29:53;;;;;;;;;;;21.00;99.90;;;;;;5026176;28;19929;-66
2022/10/20 11:32:21;;;;;;;;;;;21.10;99.90;;;;;;5011452;28;19960;-65
2022/10/20 11:35:04;;;;;;;;;;;21.00;99.90;;;;;;5012473;28;19948;-65
2022/10/20 11:37:37;;;;;;;;;;;21.10;99.90;;;;;;5017076;28;20394;-66
2022/10/20 11:40:05;;;;;;;;;;;21.10;99.90;;;;;;5006676;28;19937;-66
2022/10/20 11:42:45;;;;;;;;;;;21.10;99.90;;;;;;5000774;28;20405;-65
2022/10/20 11:45:21;;;;;;;;;;;21.20;99.90;;;;;;5009618;28;19929;-65
2022/10/20 11:47:51;;;;;;;;;;;21.20;99.90;;;;;;5017520;28;19933;-65
2022/10/20 11:50:18;;;;;;;;;;;21.20;99.90;;;;;;5018917;28;19937;-65
2022/10/20 11:53:00;;;;;;;;;;;21.20;99.90;;;;;;5018725;28;20696;-66
2022/10/20 11:55:34;;;;;;;;;;;21.10;99.90;;;;;;5002290;28;19933;-65
2022/10/20 11:58:07;;;;;;;;;;;21.10;99.90;;;;;;5018791;28;20446;-66
2022/10/20 12:00:37;;;;;;;;;;;21.00;99.90;;;;;;5003736;28;19930;-67
2022/10/20 12:03:07;;;;;;;;;;;21.00;99.90;;;;;;5011631;28;20446;-65
2022/10/20 12:05:52;;;;;;;;;;;21.00;99.90;;;;;;5011385;28;19936;-68
2022/10/20 12:08:32;;;;;;;;;;;20.90;99.90;;;;;;5018150;28;19930;-67
2022/10/20 12:11:11;;;;;;;;;;;20.90;99.90;;;;;;5012051;28;20390;-67
2022/10/20 12:13:38;;;;;;;;;;;20.80;99.90;;;;;;5006424;28;19933;-65
2022/10/20 12:16:05;;;;;;;;;;;20.80;99.90;;;;;;5006983;28;19925;-67
2022/10/20 12:18:34;;;;;;;;;;;20.80;99.90;;;;;;5006801;28;19925;-66
2022/10/20 12:21:03;;;;;;;;;;;20.80;99.90;;;;;;5009235;28;20021;-66
2022/10/20 12:23:42;;;;;;;;;;;20.80;99.90;;;;;;5024334;28;20346;-66
2022/10/20 12:26:28;;;;;;;;;;;20.70;99.90;;;;;;5008785;28;19948;-67
2022/10/20 12:28:56;;;;;;;;;;;20.70;99.90;;;;;;5018689;28;19926;-64
2022/10/20 12:31:24;;;;;;;;;;;20.70;99.90;;;;;;5002772;28;20408;-67
2022/10/20 12:33:52;;;;;;;;;;;20.70;99.90;;;;;;5027358;28;19936;-65
2022/10/20 12:36:28;;;;;;;;;;;20.70;99.90;;;;;;5007218;28;19933;-67
2022/10/20 12:39:10;;;;;;;;;;;20.60;99.90;;;;;;5008769;28;19926;-66
2022/10/20 12:41:43;;;;;;;;;;;20.60;99.90;;;;;;5017634;28;19925;-65
2022/10/20 12:44:15;;;;;;;;;;;20.60;99.90;;;;;;5014385;28;20268;-64
2022/10/20 12:46:50;;;;;;;;;;;20.60;99.90;;;;;;5014073;28;19941;-65
2022/10/20 12:49:22;;;;;;;;;;;20.60;99.90;;;;;;5016138;28;19929;-66
2022/10/20 12:51:51;;;;;;;;;;;20.70;99.90;;;;;;5012261;28;20393;-65
2022/10/20 12:54:19;;;;;;;;;;;20.70;99.90;;;;;;5011398;28;19940;-65
2022/10/20 12:56:46;;;;;;;;;;;20.70;99.90;;;;;;5023834;28;19933;-66
2022/10/20 12:59:37;;;;;;;;;;;20.80;99.90;;;;;;5008279;28;19936;-65
2022/10/20 13:02:07;;;;;;;;;;;20.90;99.90;;;;;;4997406;28;19930;-64
2022/10/20 13:04:51;;;;;;;;;;;21.00;99.90;;;;;;4998058;28;19930;-66
2022/10/20 13:07:37;;;;;;;;;;;21.00;99.90;;;;;;5017351;28;19936;-67
2022/10/20 13:10:23;;;;;;;;;;;21.00;99.90;;;;;;5009224;28;19929;-65
2022/10/20 13:12:50;;;;;;;;;;;21.00;99.90;;;;;;5004207;28;19925;-65
2022/10/20 13:15:18;;;;;;;;;;;21.10;99.90;;;;;;5007799;28;20420;-65
2022/10/20 13:17:55;;;;;;;;;;;21.10;99.90;;;;;;5008110;28;20389;-65
2022/10/20 13:20:28;;;;;;;;;;;21.10;99.90;;;;;;5005712;28;19926;-65
2022/10/20 13:22:56;;;;;;;;;;;21.10;99.90;;;;;;5015168;28;19937;-65
2022/10/20 13:25:34;;;;;;;;;;;21.10;99.90;;;;;;5015301;28;19933;-65
2022/10/20 13:28:11;;;;;;;;;;;21.10;99.90;;;;;;5014413;28;20040;-65
2022/10/20 13:30:53;;;;;;;;;;;21.10;99.90;;;;;;5014811;28;19933;-66
2022/10/20 13:33:24;;;;;;;;;;;21.10;99.90;;;;;;5018601;28;19936;-66
2022/10/20 13:36:13;;;;;;;;;;;21.10;99.90;;;;;;5011997;28;19933;-65
2022/10/20 13:38:43;;;;;;;;;;;21.10;99.90;;;;;;5011599;28;19936;-66
2022/10/20 13:41:29;;;;;;;;;;;21.10;99.90;;;;;;5006647;28;19929;-66
2022/10/20 13:44:05;;;;;;;;;;;21.10;99.90;;;;;;5018032;28;19925;-62
2022/10/20 13:46:51;;;;;;;;;;;21.10;99.90;;;;;;5032872;28;19936;-66
2022/10/20 13:49:40;;;;;;;;;;;21.10;99.90;;;;;;5011802;28;19933;-66
2022/10/20 13:52:15;;;;;;;;;;;21.10;99.90;;;;;;5015950;28;19925;-66
2022/10/20 13:54:44;;;;;;;;;;;21.10;99.90;;;;;;5011534;28;19928;-65
2022/10/20 13:57:20;;;;;;;;;;;21.10;99.90;;;;;;5018248;28;19925;-64
2022/10/20 14:00:07;;;;;;;;;;;21.10;99.90;;;;;;5011458;28;19926;-66
2022/10/20 14:02:34;;;;;;;;;;;21.00;99.90;;;;;;5012817;28;19929;-63
2022/10/20 14:05:04;;;;;;;;;;;21.10;99.90;;;;;;5004585;28;19933;-63
2022/10/20 14:07:35;;;;;;;;;;;21.10;99.90;;;;;;5002621;28;19925;-66
2022/10/20 14:10:03;;;;;;;;;;;21.10;99.90;;;;;;5013650;28;20304;-66
2022/10/20 14:12:30;;;;;;;;;;;21.10;99.90;;;;;;5015623;28;19929;-64
2022/10/20 14:14:58;;;;;;;;;;;21.00;99.90;;;;;;5011283;28;19933;-65
2022/10/20 14:17:28;;;;;;;;;;;20.90;99.90;;;;;;5005680;28;19933;-65
2022/10/20 14:20:16;;;;;;;;;;;20.90;99.90;;;;;;5021255;28;19933;-67
2022/10/20 14:22:43;;;;;;;;;;;20.80;99.90;;;;;;5004037;28;19941;-65
2022/10/20 14:25:11;;;;;;;;;;;20.80;99.90;;;;;;5012329;28;19926;-64
2022/10/20 14:27:38;;;;;;;;;;;20.80;99.90;;;;;;5031796;28;19944;-65
2022/10/20 14:30:06;;;;;;;;;;;20.70;99.90;;;;;;5015415;28;19932;-64
2022/10/20 14:32:37;;;;;;;;;;;20.80;99.90;;;;;;5000030;28;20420;-63
2022/10/20 14:35:15;;;;;;;;;;;20.80;99.90;;;;;;5014492;28;19929;-64
2022/10/20 14:37:50;;;;;;;;;;;20.80;99.90;;;;;;5011074;28;19936;-66